الصفحة الرئيسية
METAR-TAF:

METAR-TAF

مطار :

Front Range

دنفر, كولورادو, الولايات المتحدة

دائرة عرض: 39-47N, خط طول: 104-33W, ارتفاع: 1709 متر

مراقبة الطقس الحالي

تاريخ ووقت الإصدار 28 دقيقة قبل الساعة 04:30UTC
ريح 13 عقدة من الجنوب/الجنوب الشرقي تتزايد حتى 20 عقدة
درجة الحرارة 22°درجة مئوية
الرطوبة 53%
ضغط 1023 hPa
الرؤية: 16.1 كم
سماء صافية

METAR: KFTG 180430Z AUTO 15013G20KT 10SM CLR 22/12 A3022 RMK AO2 T02160117

زمن: 22:58 (04:58 UTC)


TAF: مفقودة

أرصاد الطقس والتوقعات من أكثر من 4000 مطار (تقارير الطقس للمطار METAR والتنبؤ بالطقس بالمطارTAF).

المحطات المتاحة هي النقط الصفراء والحمراء على الخريطة.

حرك المؤشر فوق النقطة لمعرفة اسم المحطة.

ثم انقر لمعرفة أرصاد وتوقعات الطقس.

لتغيير الخارطة: اضغط على الأزرار الخضراء مع رمز الصليب الأسود للتكبير. على الزر الأخضر مع شرطة للتصغير، أو على الأسهم الخضراء للخرائط المجاورة.


METAR-TAF: